Time;durP1;ratioP1;P1;durP2;ratioP2;P2;SDS_P1;SDS_P2;PMS_P1;PMS_P2;Temp;Humidity;BMP_temperature;BMP_pressure;BME280_temperature;BME280_humidity;BME280_pressure;Samples;Min_cycle;Max_cycle;Signal;HPM_P1;HPM_P2
2023/04/20 01:42:01;;;;;;;5.97;2.40;;;8.80;99.90;;;;;;5083710;27;21006;-78
2023/04/20 01:44:26;;;;;;;4.10;2.05;;;8.80;99.90;;;;;;5075772;28;20067;-78
2023/04/20 01:46:52;;;;;;;2.28;1.73;;;8.80;99.90;;;;;;5052475;28;20045;-79
2023/04/20 01:49:18;;;;;;;4.28;2.40;;;8.70;99.90;;;;;;5084691;28;20109;-78
2023/04/20 01:51:43;;;;;;;2.67;1.90;;;8.60;99.90;;;;;;5050245;28;20029;-79
2023/04/20 01:54:09;;;;;;;4.63;2.10;;;8.60;99.90;;;;;;5060769;28;20029;-79
2023/04/20 01:56:34;;;;;;;4.03;1.98;;;8.40;99.90;;;;;;5089157;28;20105;-79
2023/04/20 01:59:00;;;;;;;3.78;1.90;;;8.40;99.90;;;;;;5067302;28;20747;-79
2023/04/20 02:01:26;;;;;;;6.95;2.20;;;8.30;99.90;;;;;;5063989;28;20040;-79
2023/04/20 02:03:51;;;;;;;2.75;1.92;;;8.20;99.90;;;;;;5064629;28;20415;-79
2023/04/20 02:06:17;;;;;;;2.55;1.80;;;8.20;99.90;;;;;;5066135;28;20079;-78
2023/04/20 02:08:43;;;;;;;3.33;1.92;;;8.10;99.90;;;;;;5068234;28;20464;-80
2023/04/20 02:11:09;;;;;;;3.88;2.03;;;8.10;99.90;;;;;;5067983;28;20040;-79
2023/04/20 02:13:35;;;;;;;13.65;2.70;;;8.00;99.90;;;;;;5066403;28;20032;-78
2023/04/20 02:16:00;;;;;;;6.47;2.28;;;7.80;99.90;;;;;;5051445;28;20047;-79
2023/04/20 02:18:26;;;;;;;5.13;2.30;;;7.70;99.90;;;;;;5051022;28;20040;-78
2023/04/20 02:20:52;;;;;;;3.38;2.15;;;7.60;99.90;;;;;;5067155;28;20036;-79
2023/04/20 02:23:17;;;;;;;5.05;2.70;;;7.90;99.90;;;;;;5053350;28;20136;-78
2023/04/20 02:25:43;;;;;;;2.90;2.03;;;7.60;99.90;;;;;;5066878;28;20037;-78
2023/04/20 02:28:09;;;;;;;5.20;2.10;;;7.70;99.90;;;;;;5067656;28;20055;-79
2023/04/20 02:30:34;;;;;;;4.10;2.42;;;7.90;99.90;;;;;;5046464;28;20041;-79
2023/04/20 02:33:00;;;;;;;4.70;2.33;;;8.10;99.90;;;;;;5045968;28;20041;-79
2023/04/20 02:35:29;;;;;;;5.18;2.30;;;8.20;99.90;;;;;;5081663;28;20051;-79
2023/04/20 02:37:54;;;;;;;4.15;2.67;;;8.30;99.90;;;;;;5047486;28;20580;-79
2023/04/20 02:40:20;;;;;;;4.28;2.65;;;8.30;99.90;;;;;;5075718;28;20400;-78
2023/04/20 02:42:46;;;;;;;5.15;2.22;;;8.50;99.90;;;;;;5063073;28;20358;-78
2023/04/20 02:45:12;;;;;;;3.83;2.13;;;8.70;99.90;;;;;;5072950;28;20033;-79
2023/04/20 02:47:37;;;;;;;5.95;2.50;;;8.70;99.90;;;;;;5047686;28;20094;-79
2023/04/20 02:50:03;;;;;;;6.20;2.28;;;9.00;99.90;;;;;;5042663;28;20115;-80
2023/04/20 02:52:29;;;;;;;4.25;2.42;;;9.00;99.90;;;;;;5085181;28;20087;-79
2023/04/20 02:54:55;;;;;;;4.03;2.20;;;9.20;99.90;;;;;;5066641;28;20528;-79
2023/04/20 02:57:21;;;;;;;5.43;2.78;;;9.40;99.90;;;;;;5041364;28;20071;-79
2023/04/20 02:59:46;;;;;;;4.55;2.25;;;9.40;99.90;;;;;;5030503;28;20097;-79
2023/04/20 03:02:12;;;;;;;5.60;2.28;;;9.30;99.90;;;;;;5050211;28;20054;-79
2023/04/20 03:04:38;;;;;;;4.45;2.15;;;9.40;99.90;;;;;;5042233;28;20039;-80
2023/04/20 03:07:04;;;;;;;4.43;2.00;;;9.50;99.90;;;;;;5055443;28;20040;-80
2023/04/20 03:09:30;;;;;;;4.50;2.83;;;9.60;99.90;;;;;;5052670;28;20048;-80
2023/04/20 03:11:56;;;;;;;3.50;2.05;;;9.50;99.90;;;;;;5054256;28;20041;-80
2023/04/20 03:14:22;;;;;;;5.10;2.35;;;9.60;99.90;;;;;;5045148;28;20048;-78
2023/04/20 03:16:48;;;;;;;4.20;2.60;;;9.70;99.90;;;;;;5071838;28;20397;-80
2023/04/20 03:19:14;;;;;;;3.40;2.22;;;9.70;99.90;;;;;;5048494;28;20504;-79
2023/04/20 03:21:39;;;;;;;4.70;2.60;;;9.70;99.90;;;;;;5061569;28;20043;-79
2023/04/20 03:24:06;;;;;;;3.97;2.80;;;9.70;99.90;;;;;;5018654;28;20420;-79
2023/04/20 03:26:31;;;;;;;3.30;1.90;;;9.70;99.90;;;;;;5095707;28;20078;-78
2023/04/20 03:28:57;;;;;;;3.80;2.33;;;9.70;99.90;;;;;;5053461;28;20037;-79
2023/04/20 03:31:23;;;;;;;3.88;2.42;;;9.60;99.90;;;;;;5053376;28;20090;-80
2023/04/20 03:33:49;;;;;;;3.60;2.00;;;9.70;99.90;;;;;;5019710;28;20035;-80
2023/04/20 03:36:15;;;;;;;4.28;2.20;;;9.60;99.90;;;;;;5034755;28;20659;-80
2023/04/20 03:38:40;;;;;;;4.05;2.05;;;9.60;99.90;;;;;;5034097;28;20420;-80
2023/04/20 03:41:07;;;;;;;4.32;2.45;;;9.60;99.90;;;;;;5072002;28;20083;-79
2023/04/20 03:43:33;;;;;;;4.57;2.53;;;9.60;99.90;;;;;;5054345;28;20443;-80
2023/04/20 03:45:58;;;;;;;2.95;2.03;;;9.60;99.90;;;;;;5062278;28;20120;-80
2023/04/20 03:48:24;;;;;;;4.05;2.40;;;9.60;99.90;;;;;;5052367;28;20155;-80
2023/04/20 03:50:50;;;;;;;2.78;1.85;;;9.60;99.90;;;;;;5052180;28;20044;-79
2023/04/20 03:53:16;;;;;;;2.13;1.63;;;9.60;99.90;;;;;;5048304;28;20040;-82
2023/04/20 03:55:41;;;;;;;3.05;1.90;;;9.60;99.90;;;;;;5053540;28;20118;-80
2023/04/20 03:58:08;;;;;;;5.32;2.38;;;9.60;99.90;;;;;;5078295;28;20404;-80
2023/04/20 04:00:33;;;;;;;3.75;2.28;;;9.60;99.90;;;;;;5033522;28;20045;-81
2023/04/20 04:02:59;;;;;;;3.45;2.00;;;9.60;99.90;;;;;;5035588;28;20460;-81
2023/04/20 04:05:25;;;;;;;6.07;2.03;;;9.60;99.90;;;;;;5035097;28;20028;-82
2023/04/20 04:07:51;;;;;;;3.42;1.90;;;9.60;99.90;;;;;;5068143;28;20094;-80
2023/04/20 04:10:17;;;;;;;2.42;1.73;;;9.70;99.90;;;;;;5052096;28;20052;-81
2023/04/20 04:12:46;;;;;;;2.35;1.77;;;9.60;99.90;;;;;;5043396;28;20119;-81
2023/04/20 04:15:12;;;;;;;3.67;2.30;;;9.60;99.90;;;;;;5064837;28;20037;-81
2023/04/20 04:17:38;;;;;;;4.50;2.05;;;9.60;99.90;;;;;;5032753;28;20344;-79
2023/04/20 04:20:07;;;;;;;3.70;1.77;;;9.50;99.90;;;;;;5064671;28;20056;-80
2023/04/20 04:22:33;;;;;;;2.72;1.77;;;9.50;99.90;;;;;;5023577;28;20047;-80
2023/04/20 04:24:59;;;;;;;3.85;1.58;;;9.40;99.90;;;;;;5040643;28;20040;-80
2023/04/20 04:27:28;;;;;;;3.05;1.80;;;9.40;99.90;;;;;;5035625;28;20032;-79
2023/04/20 04:29:55;;;;;;;4.18;1.80;;;9.40;99.90;;;;;;5032628;28;20373;-81
2023/04/20 04:32:23;;;;;;;2.50;1.63;;;9.40;99.90;;;;;;5050463;28;20039;-79
2023/04/20 04:34:49;;;;;;;4.75;2.00;;;9.50;99.30;;;;;;5043402;28;20041;-80
2023/04/20 04:37:15;;;;;;;3.75;1.60;;;9.50;93.30;;;;;;5048107;28;20113;-79
2023/04/20 04:39:40;;;;;;;2.58;1.60;;;9.50;85.00;;;;;;5056654;28;20040;-81
2023/04/20 04:42:06;;;;;;;4.65;1.85;;;9.40;88.20;;;;;;5055643;28;20489;-81
2023/04/20 04:44:32;;;;;;;2.30;1.55;;;9.40;90.80;;;;;;5052999;28;20036;-79
2023/04/20 04:46:58;;;;;;;4.10;1.80;;;9.40;79.50;;;;;;5067463;28;20393;-80
2023/04/20 04:49:24;;;;;;;5.97;1.73;;;9.40;79.70;;;;;;5042528;28;20040;-78
2023/04/20 04:51:49;;;;;;;2.70;1.58;;;9.50;73.30;;;;;;5045541;28;20101;-80
2023/04/20 04:54:15;;;;;;;3.08;1.67;;;9.40;90.60;;;;;;5027886;28;20047;-80
2023/04/20 04:56:41;;;;;;;4.32;1.90;;;9.40;99.90;;;;;;5055825;28;20039;-80
2023/04/20 04:59:06;;;;;;;5.72;1.80;;;9.30;99.90;;;;;;5048805;28;20048;-80
2023/04/20 05:01:32;;;;;;;2.35;1.50;;;9.20;99.90;;;;;;5051165;28;20044;-79
2023/04/20 05:03:58;;;;;;;3.50;2.00;;;9.10;99.90;;;;;;5033105;28;20146;-78
2023/04/20 05:06:24;;;;;;;5.05;2.17;;;9.10;99.90;;;;;;5064984;28;20040;-78
2023/04/20 05:08:49;;;;;;;3.58;1.90;;;9.10;99.90;;;;;;5078133;28;20040;-79
2023/04/20 05:11:15;;;;;;;2.40;1.67;;;9.00;99.90;;;;;;5055141;28;20056;-77
2023/04/20 05:13:41;;;;;;;5.28;1.88;;;9.00;99.90;;;;;;5062882;28;20044;-77
2023/04/20 05:16:06;;;;;;;3.50;1.90;;;9.10;99.90;;;;;;5031652;28;20436;-79
2023/04/20 05:18:32;;;;;;;3.25;1.77;;;9.00;99.90;;;;;;5061647;28;20036;-80
2023/04/20 05:20:58;;;;;;;2.53;1.85;;;9.10;99.90;;;;;;5060673;28;20043;-83
2023/04/20 05:23:24;;;;;;;3.47;1.80;;;9.10;99.90;;;;;;5030147;28;20041;-78
2023/04/20 05:25:50;;;;;;;3.47;1.90;;;9.10;99.90;;;;;;5018875;28;20054;-81
2023/04/20 05:28:16;;;;;;;4.25;1.67;;;9.10;99.90;;;;;;5031214;28;20040;-81
2023/04/20 05:30:42;;;;;;;3.00;1.70;;;9.10;99.90;;;;;;5071064;28;20048;-80
2023/04/20 05:33:08;;;;;;;3.80;1.92;;;9.20;99.90;;;;;;5063252;28;20048;-80
2023/04/20 05:35:34;;;;;;;2.20;1.67;;;9.10;99.90;;;;;;5050756;28;20052;-78
2023/04/20 05:38:01;;;;;;;5.38;1.88;;;9.00;99.90;;;;;;5034849;28;20419;-80
2023/04/20 05:40:27;;;;;;;3.20;2.03;;;8.90;99.90;;;;;;5034502;28;20041;-79
2023/04/20 05:42:53;;;;;;;3.70;1.95;;;8.90;99.90;;;;;;5026550;28;20167;-78
2023/04/20 05:45:19;;;;;;;5.93;1.98;;;8.90;99.90;;;;;;5051251;28;20090;-78
2023/04/20 05:47:55;;;;;;;5.22;1.90;;;8.90;99.90;;;;;;5071324;28;20040;-80
2023/04/20 05:50:25;;;;;;;3.00;2.40;;;8.90;99.90;;;;;;5041154;28;20037;-79
2023/04/20 05:52:51;;;;;;;7.53;5.28;;;8.90;99.90;;;;;;5056290;28;20044;-79
2023/04/20 05:55:18;;;;;;;3.10;1.90;;;8.90;99.90;;;;;;5034260;28;20050;-81
2023/04/20 05:57:43;;;;;;;6.50;1.83;;;8.90;99.90;;;;;;5049829;28;20102;-79
2023/04/20 06:00:11;;;;;;;6.43;2.03;;;8.90;99.90;;;;;;5039539;28;20045;-79
2023/04/20 06:02:37;;;;;;;5.22;2.03;;;8.90;99.90;;;;;;5034196;28;20492;-78
2023/04/20 06:05:03;;;;;;;4.25;2.30;;;8.90;99.90;;;;;;5062304;28;20113;-79
2023/04/20 06:07:28;;;;;;;3.80;1.90;;;8.90;99.90;;;;;;5063875;28;20094;-78
2023/04/20 06:09:54;;;;;;;4.13;2.63;;;8.90;99.90;;;;;;5036496;28;20044;-79
2023/04/20 06:12:20;;;;;;;3.40;1.92;;;8.90;99.90;;;;;;5048592;28;20044;-78
2023/04/20 06:14:46;;;;;;;4.97;2.05;;;9.00;99.90;;;;;;5049983;28;20440;-80
2023/04/20 06:17:12;;;;;;;4.55;2.35;;;9.00;99.90;;;;;;5059407;28;20047;-77
2023/04/20 06:19:37;;;;;;;3.63;1.83;;;8.90;99.90;;;;;;5064315;28;20033;-78
2023/04/20 06:22:07;;;;;;;3.67;1.73;;;8.90;99.90;;;;;;5067636;28;20075;-78
2023/04/20 06:24:34;;;;;;;5.75;2.42;;;8.80;99.90;;;;;;5067580;28;20100;-78
2023/04/20 06:27:01;;;;;;;4.25;2.10;;;8.80;99.90;;;;;;5033494;28;20044;-78
2023/04/20 06:29:27;;;;;;;2.65;2.00;;;8.80;99.90;;;;;;5052706;28;20082;-81
2023/04/20 06:31:53;;;;;;;5.85;1.90;;;8.80;99.90;;;;;;5067579;28;20049;-79
2023/04/20 06:34:20;;;;;;;3.08;2.10;;;8.70;99.90;;;;;;5061036;28;20040;-79
2023/04/20 06:36:45;;;;;;;3.85;2.03;;;8.70;99.90;;;;;;5033745;28;20408;-78
2023/04/20 06:39:16;;;;;;;4.18;2.10;;;8.80;99.90;;;;;;5037596;28;20067;-78
2023/04/20 06:41:42;;;;;;;4.63;1.88;;;8.60;99.90;;;;;;5052239;28;20060;-79
2023/04/20 06:44:08;;;;;;;4.38;2.13;;;8.50;99.90;;;;;;5041105;28;20041;-79
2023/04/20 06:46:34;;;;;;;3.42;1.92;;;8.60;99.90;;;;;;5035499;28;20070;-77
2023/04/20 06:49:00;;;;;;;3.38;2.13;;;8.50;99.90;;;;;;5056191;28;20037;-78
2023/04/20 06:51:27;;;;;;;5.40;2.08;;;8.40;99.90;;;;;;5065887;28;20044;-78
2023/04/20 06:53:53;;;;;;;5.18;2.30;;;8.30;99.90;;;;;;5051304;28;20090;-80
2023/04/20 06:56:19;;;;;;;3.80;2.10;;;8.30;99.90;;;;;;5069215;28;20064;-79
2023/04/20 06:58:45;;;;;;;4.25;2.35;;;8.20;99.90;;;;;;5031545;28;20044;-79
2023/04/20 07:01:11;;;;;;;3.05;1.90;;;8.20;99.90;;;;;;5050486;28;20040;-79
2023/04/20 07:03:36;;;;;;;5.47;2.70;;;8.10;99.90;;;;;;5035321;28;20082;-78
2023/04/20 07:06:03;;;;;;;4.47;2.60;;;8.10;99.90;;;;;;5043015;28;20038;-77
2023/04/20 07:08:28;;;;;;;4.72;2.40;;;8.00;99.90;;;;;;5060867;28;20039;-77
2023/04/20 07:10:54;;;;;;;6.95;2.50;;;8.00;99.90;;;;;;5042566;28;20044;-77
2023/04/20 07:13:20;;;;;;;3.05;2.47;;;8.00;99.90;;;;;;5074261;28;20069;-77
2023/04/20 07:15:45;;;;;;;5.18;2.95;;;8.10;99.90;;;;;;5047178;28;20052;-77
2023/04/20 07:18:11;;;;;;;3.92;2.60;;;8.10;99.90;;;;;;5067929;28;20128;-77
2023/04/20 07:20:37;;;;;;;5.88;2.70;;;8.10;99.90;;;;;;5070849;28;20049;-78
2023/04/20 07:23:03;;;;;;;5.15;2.85;;;8.10;99.90;;;;;;5031506;28;20492;-73
2023/04/20 07:25:31;;;;;;;3.78;2.35;;;8.10;99.90;;;;;;5054724;28;20078;-79
2023/04/20 07:27:57;;;;;;;4.28;2.42;;;8.00;99.90;;;;;;5058299;28;20560;-79
2023/04/20 07:30:24;;;;;;;3.50;2.25;;;8.00;99.90;;;;;;5069947;28;20127;-80
2023/04/20 07:32:50;;;;;;;5.55;2.85;;;8.10;99.90;;;;;;5066964;28;20048;-78
2023/04/20 07:35:16;;;;;;;4.25;2.92;;;8.20;99.90;;;;;;5047291;28;20045;-77
2023/04/20 07:37:42;;;;;;;5.45;3.00;;;8.10;99.90;;;;;;5048053;28;20048;-83
2023/04/20 07:40:10;;;;;;;4.30;2.53;;;8.10;99.90;;;;;;5032126;28;20065;-81
2023/04/20 07:42:36;;;;;;;5.35;2.45;;;8.30;99.90;;;;;;5063263;28;20049;-77
2023/04/20 07:45:07;;;;;;;4.70;2.58;;;8.20;99.90;;;;;;5069853;28;20672;-78
2023/04/20 07:47:34;;;;;;;4.47;2.70;;;8.30;99.90;;;;;;5055806;28;20040;-79
2023/04/20 07:50:00;;;;;;;4.68;2.65;;;8.20;99.90;;;;;;5054636;28;20082;-78
2023/04/20 07:52:25;;;;;;;2.80;2.40;;;8.10;99.90;;;;;;5064263;28;20089;-78
2023/04/20 07:54:56;;;;;;;6.25;3.95;;;8.10;99.90;;;;;;5026116;28;20132;-78
2023/04/20 07:57:22;;;;;;;4.63;2.97;;;8.10;99.90;;;;;;5062968;28;20040;-80
2023/04/20 07:59:48;;;;;;;5.82;2.83;;;8.10;99.90;;;;;;5058351;28;20041;-77
2023/04/20 08:02:16;;;;;;;5.13;3.05;;;8.30;99.90;;;;;;5065339;28;20052;-77
2023/04/20 08:04:43;;;;;;;4.78;3.00;;;8.40;99.90;;;;;;5077753;28;20037;-77
2023/04/20 08:07:09;;;;;;;3.58;2.80;;;8.40;99.90;;;;;;5068497;28;20041;-77
2023/04/20 08:09:35;;;;;;;4.65;2.88;;;8.40;99.90;;;;;;5037533;28;20127;-78
2023/04/20 08:12:01;;;;;;;4.80;2.67;;;8.50;99.90;;;;;;5070849;28;20143;-77
2023/04/20 08:14:27;;;;;;;4.18;2.58;;;8.60;99.90;;;;;;5067973;28;20162;-79
2023/04/20 08:16:53;;;;;;;4.68;3.00;;;8.50;99.90;;;;;;5045913;28;20120;-78
2023/04/20 08:19:18;;;;;;;4.00;2.63;;;8.50;99.90;;;;;;5057070;28;20519;-76
2023/04/20 08:21:44;;;;;;;5.35;2.78;;;8.60;99.90;;;;;;5041291;28;20101;-76
2023/04/20 08:24:11;;;;;;;5.72;2.78;;;8.50;99.90;;;;;;5062003;28;20079;-80
2023/04/20 08:26:38;;;;;;;6.43;2.80;;;8.50;99.90;;;;;;5039522;28;20043;-77
2023/04/20 08:29:04;;;;;;;4.00;2.67;;;8.60;99.90;;;;;;5037005;28;20033;-79
2023/04/20 08:31:30;;;;;;;6.13;3.13;;;8.50;99.90;;;;;;5041983;28;20354;-80
2023/04/20 08:33:56;;;;;;;5.75;3.25;;;8.50;99.90;;;;;;5031245;28;20066;-82
2023/04/20 08:36:22;;;;;;;3.38;2.30;;;8.50;99.90;;;;;;5033497;28;20116;-78
2023/04/20 08:38:55;;;;;;;7.30;3.58;;;8.50;99.90;;;;;;5053502;28;20044;-78
2023/04/20 08:41:21;;;;;;;5.63;3.13;;;8.50;99.90;;;;;;5054645;28;20049;-77
2023/04/20 08:43:48;;;;;;;4.35;3.13;;;8.50;99.90;;;;;;5035497;28;20032;-77
2023/04/20 08:46:16;;;;;;;4.13;3.10;;;8.60;99.90;;;;;;5041428;28;20120;-78
2023/04/20 08:48:48;;;;;;;4.85;3.10;;;8.70;99.90;;;;;;5068359;28;20085;-79
2023/04/20 08:51:16;;;;;;;5.97;3.05;;;8.90;99.90;;;;;;5042045;28;20049;-77
2023/04/20 08:53:43;;;;;;;5.43;3.63;;;9.00;99.90;;;;;;5047107;28;20044;-79
2023/04/20 08:56:09;;;;;;;5.90;3.33;;;9.00;99.90;;;;;;5029511;28;20527;-77
2023/04/20 08:58:34;;;;;;;5.28;3.10;;;8.90;99.90;;;;;;5015622;28;20040;-80
2023/04/20 09:01:00;;;;;;;5.82;3.80;;;9.00;99.90;;;;;;5049458;28;20544;-78
2023/04/20 09:03:38;;;;;;;6.32;3.67;;;9.10;99.90;;;;;;5082336;28;20043;-79
2023/04/20 09:06:12;;;;;;;7.72;3.75;;;9.20;99.90;;;;;;5046059;28;20032;-78
2023/04/20 09:08:40;;;;;;;7.03;3.70;;;9.20;99.90;;;;;;5057704;28;20645;-78
2023/04/20 09:11:07;;;;;;;6.13;3.60;;;9.30;99.90;;;;;;5058770;28;20079;-78
2023/04/20 09:13:32;;;;;;;7.35;3.45;;;9.30;99.90;;;;;;5031999;28;20064;-79
2023/04/20 09:16:12;;;;;;;10.70;3.47;;;9.40;99.90;;;;;;5029576;28;20075;-77
2023/04/20 09:18:38;;;;;;;5.85;3.85;;;9.40;99.90;;;;;;5006690;28;20032;-80
2023/04/20 09:21:08;;;;;;;5.68;3.70;;;9.50;99.90;;;;;;5025812;28;20045;-78
2023/04/20 09:23:34;;;;;;;7.00;4.03;;;9.50;99.90;;;;;;5029462;28;20080;-78
2023/04/20 09:26:00;;;;;;;8.63;4.10;;;9.50;99.90;;;;;;5034469;28;20060;-78
2023/04/20 09:28:37;;;;;;;6.50;3.40;;;9.50;99.90;;;;;;5057065;28;20469;-81
2023/04/20 09:31:03;;;;;;;6.68;3.83;;;9.40;99.90;;;;;;5059594;28;20770;-81
2023/04/20 09:33:31;;;;;;;5.90;3.60;;;9.40;99.90;;;;;;5013874;28;20044;-79
2023/04/20 09:36:03;;;;;;;6.80;4.10;;;9.40;99.90;;;;;;5070709;28;21029;-78
2023/04/20 09:38:29;;;;;;;4.43;3.22;;;9.30;99.90;;;;;;5067020;28;20539;-80
2023/04/20 09:41:00;;;;;;;7.25;3.70;;;9.50;99.90;;;;;;5053369;28;20117;-76
2023/04/20 09:43:27;;;;;;;5.85;4.07;;;9.60;99.90;;;;;;5069413;28;20051;-76
2023/04/20 09:45:55;;;;;;;4.82;3.55;;;9.70;99.90;;;;;;5086030;28;20055;-77
2023/04/20 09:48:21;;;;;;;23.17;12.80;;;9.60;99.90;;;;;;5082213;28;20094;-75
2023/04/20 09:50:47;;;;;;;35.58;16.00;;;9.70;99.90;;;;;;5058536;28;20035;-77
2023/04/20 09:53:16;;;;;;;24.17;10.10;;;9.70;99.90;;;;;;5023367;28;20103;-78
2023/04/20 09:55:53;;;;;;;20.80;9.43;;;9.80;99.90;;;;;;5036111;28;20064;-81
2023/04/20 09:58:20;;;;;;;10.40;6.32;;;9.90;99.90;;;;;;5033456;28;20033;-80
2023/04/20 10:00:45;;;;;;;7.00;4.15;;;9.90;99.90;;;;;;5035892;28;20440;-80
2023/04/20 10:03:16;;;;;;;6.82;3.95;;;10.20;99.90;;;;;;5054445;28;20043;-76
2023/04/20 10:05:42;;;;;;;5.55;3.30;;;10.10;99.90;;;;;;5065196;28;20419;-77
2023/04/20 10:08:08;;;;;;;7.97;4.15;;;10.00;99.90;;;;;;5053442;28;20578;-78
2023/04/20 10:11:03;;;;;;;7.35;3.88;;;10.10;99.90;;;;;;5044165;28;20039;-79
2023/04/20 10:13:33;;;;;;;7.13;4.05;;;9.90;99.90;;;;;;5025874;28;20205;-79
2023/04/20 10:15:58;;;;;;;6.35;4.00;;;10.00;99.90;;;;;;5045728;28;20044;-77
2023/04/20 10:18:25;;;;;;;6.38;3.80;;;9.90;99.90;;;;;;5036897;28;20033;-78
2023/04/20 10:21:02;;;;;;;5.20;3.75;;;9.80;99.90;;;;;;5038171;28;20112;-80
2023/04/20 10:23:28;;;;;;;5.03;3.05;;;9.80;99.90;;;;;;5055113;28;20047;-80
2023/04/20 10:25:59;;;;;;;6.38;3.92;;;9.80;99.90;;;;;;5043033;28;20045;-81
2023/04/20 10:28:39;;;;;;;6.28;4.47;;;9.80;99.90;;;;;;5037195;28;20037;-83
2023/04/20 10:31:06;;;;;;;5.75;4.30;;;9.70;99.90;;;;;;5033932;28;20052;-84
2023/04/20 10:33:32;;;;;;;8.63;4.32;;;9.70;99.90;;;;;;5039668;28;20139;-81
2023/04/20 10:35:58;;;;;;;7.10;4.10;;;9.60;99.90;;;;;;5033973;28;20123;-84
2023/04/20 10:38:29;;;;;;;12.02;5.50;;;9.60;99.90;;;;;;5046782;28;20082;-83
2023/04/20 10:40:55;;;;;;;6.88;3.90;;;9.60;99.90;;;;;;5053194;28;20110;-81
2023/04/20 10:43:21;;;;;;;6.43;4.07;;;9.50;99.90;;;;;;5048344;28;20086;-81
2023/04/20 10:45:48;;;;;;;5.82;4.35;;;9.60;99.90;;;;;;5059553;28;20764;-80
2023/04/20 10:48:14;;;;;;;5.45;3.40;;;9.80;99.90;;;;;;5088309;28;20037;-81
2023/04/20 10:50:40;;;;;;;7.55;4.85;;;10.10;99.90;;;;;;5032234;28;20056;-81
2023/04/20 10:53:20;;;;;;;6.88;4.75;;;10.30;99.90;;;;;;5081403;28;20040;-78
2023/04/20 10:55:46;;;;;;;7.30;4.70;;;10.30;99.90;;;;;;5066042;28;20048;-80
2023/04/20 10:58:23;;;;;;;6.50;4.45;;;10.10;99.90;;;;;;5073340;28;20052;-81
2023/04/20 11:01:03;;;;;;;6.63;4.65;;;10.20;99.90;;;;;;5052164;28;20045;-79
2023/04/20 11:03:33;;;;;;;5.78;4.75;;;10.10;99.90;;;;;;5034669;28;20051;-81
2023/04/20 11:06:02;;;;;;;8.88;5.22;;;10.00;99.90;;;;;;5044333;28;20127;-77
2023/04/20 11:08:42;;;;;;;6.95;4.38;;;10.00;99.90;;;;;;5049653;28;20037;-76
2023/04/20 11:11:28;;;;;;;6.47;4.15;;;9.90;99.90;;;;;;5049413;28;20507;-78
2023/04/20 11:14:11;;;;;;;6.88;4.70;;;9.90;99.90;;;;;;5069286;28;20068;-77
2023/04/20 11:16:37;;;;;;;8.18;5.40;;;10.00;99.90;;;;;;5068144;28;20095;-78
2023/04/20 11:19:04;;;;;;;7.43;4.35;;;9.90;99.90;;;;;;5052831;28;20055;-78
2023/04/20 11:21:41;;;;;;;5.57;4.93;;;10.30;99.90;;;;;;5051437;28;20072;-78
2023/04/20 11:24:41;;;;;;;6.38;4.65;;;10.30;99.90;;;;;;5068025;28;20041;-77
2023/04/20 11:27:17;;;;;;;10.57;5.13;;;10.20;99.90;;;;;;5032370;28;20048;-78
2023/04/20 11:29:43;;;;;;;8.18;4.75;;;10.20;99.90;;;;;;5054384;28;20059;-79
2023/04/20 11:32:10;;;;;;;6.95;4.78;;;10.10;99.90;;;;;;5047906;28;20048;-76
2023/04/20 11:34:38;;;;;;;9.98;5.63;;;10.10;99.90;;;;;;5068756;28;20520;-77
2023/04/20 11:37:09;;;;;;;10.93;5.53;;;10.00;99.90;;;;;;5052473;28;20036;-77
2023/04/20 11:39:35;;;;;;;7.47;5.18;;;9.80;99.90;;;;;;5065870;28;20045;-76
2023/04/20 11:42:02;;;;;;;8.13;5.20;;;9.80;99.90;;;;;;5064940;28;20083;-77
2023/04/20 11:44:28;;;;;;;6.05;4.75;;;9.80;99.90;;;;;;5069613;28;20101;-76
2023/04/20 11:46:56;;;;;;;7.82;5.53;;;10.00;99.90;;;;;;5036139;28;20481;-78
2023/04/20 11:49:27;;;;;;;10.60;5.55;;;10.00;99.90;;;;;;5053194;28;20115;-76
2023/04/20 11:51:53;;;;;;;8.50;5.78;;;10.60;99.90;;;;;;5053568;28;20048;-77
2023/04/20 11:54:20;;;;;;;8.48;4.50;;;10.80;99.90;;;;;;5069207;28;20051;-78
2023/04/20 11:56:46;;;;;;;8.52;5.35;;;11.20;99.90;;;;;;5051535;28;20040;-79
2023/04/20 11:59:14;;;;;;;10.30;6.15;;;11.20;99.90;;;;;;5047067;28;20076;-78
2023/04/20 12:01:40;;;;;;;9.10;6.30;;;11.40;99.90;;;;;;5021896;28;20072;-76
2023/04/20 12:04:06;;;;;;;11.13;6.85;;;11.50;99.90;;;;;;5058375;28;20093;-76
2023/04/20 12:06:32;;;;;;;9.98;6.60;;;11.20;99.90;;;;;;5048878;28;20041;-77
2023/04/20 12:08:58;;;;;;;7.47;5.63;;;11.40;99.90;;;;;;5034438;28;20447;-78
2023/04/20 12:11:24;;;;;;;10.63;7.35;;;11.40;99.90;;;;;;5029275;28;20029;-79
2023/04/20 12:13:50;;;;;;;10.52;7.00;;;11.30;99.90;;;;;;5042561;28;20039;-78
2023/04/20 12:16:16;;;;;;;7.45;5.57;;;11.50;99.90;;;;;;5048924;28;20090;-79
2023/04/20 12:18:42;;;;;;;9.82;6.10;;;11.40;99.90;;;;;;5049760;28;20040;-77
2023/04/20 12:21:08;;;;;;;10.88;7.03;;;11.50;99.90;;;;;;5046951;28;20036;-79
2023/04/20 12:23:37;;;;;;;9.35;5.70;;;11.70;99.90;;;;;;5047241;28;20036;-78
2023/04/20 12:26:04;;;;;;;11.07;6.25;;;11.80;99.90;;;;;;5045897;28;20080;-77
2023/04/20 12:28:31;;;;;;;8.50;6.15;;;11.50;99.90;;;;;;5023083;28;20036;-80
2023/04/20 12:30:57;;;;;;;8.55;5.95;;;11.50;99.90;;;;;;5050232;28;20136;-81
2023/04/20 12:33:23;;;;;;;8.32;5.03;;;11.70;99.90;;;;;;5063241;28;20566;-78
2023/04/20 12:35:49;;;;;;;7.20;4.40;;;12.30;99.90;;;;;;5046761;28;20048;-79
2023/04/20 12:38:18;;;;;;;9.05;6.07;;;12.70;99.90;;;;;;5051187;28;20044;-80
2023/04/20 12:40:44;;;;;;;7.80;5.43;;;12.50;99.90;;;;;;5047519;28;20059;-81
2023/04/20 12:43:10;;;;;;;11.45;5.45;;;12.70;99.90;;;;;;5033072;28;20044;-79
2023/04/20 12:45:36;;;;;;;12.18;7.35;;;12.50;99.90;;;;;;5046508;28;20047;-78
2023/04/20 12:48:02;;;;;;;7.97;6.20;;;12.50;99.90;;;;;;5032285;28;20036;-78
2023/04/20 12:50:28;;;;;;;7.30;6.07;;;12.90;99.90;;;;;;5038174;28;20040;-77
2023/04/20 12:52:55;;;;;;;6.60;5.88;;;12.90;99.90;;;;;;5042267;28;20072;-78
2023/04/20 12:55:21;;;;;;;7.32;5.45;;;12.90;99.90;;;;;;5054072;28;20115;-80
2023/04/20 12:57:47;;;;;;;7.60;5.35;;;13.10;99.90;;;;;;5045077;28;20040;-79
2023/04/20 13:00:13;;;;;;;5.65;4.07;;;13.80;99.90;;;;;;5046213;28;20040;-80
2023/04/20 13:02:40;;;;;;;5.40;4.47;;;13.80;99.90;;;;;;5032490;28;20040;-81
2023/04/20 13:05:06;;;;;;;6.50;5.07;;;13.90;99.90;;;;;;5016804;28;20484;-79
2023/04/20 13:07:31;;;;;;;5.65;4.72;;;14.00;99.90;;;;;;5042250;28;20047;-79
2023/04/20 13:09:58;;;;;;;5.75;3.70;;;13.60;99.90;;;;;;5041270;28;20056;-79
2023/04/20 13:12:24;;;;;;;8.68;6.00;;;13.20;99.90;;;;;;5045545;28;20031;-78
2023/04/20 13:14:50;;;;;;;6.10;5.38;;;13.00;99.90;;;;;;5051613;28;20040;-78
2023/04/20 13:17:16;;;;;;;9.27;5.55;;;12.80;99.90;;;;;;5064700;28;20555;-78
2023/04/20 13:19:42;;;;;;;8.38;5.68;;;12.70;99.90;;;;;;5042763;28;20166;-79
2023/04/20 13:22:08;;;;;;;8.48;5.70;;;12.50;99.90;;;;;;5036180;28;20041;-78
2023/04/20 13:24:34;;;;;;;7.22;5.70;;;12.70;99.90;;;;;;5072021;28;20568;-79
2023/04/20 13:27:00;;;;;;;6.78;5.40;;;13.30;99.90;;;;;;5037424;28;20029;-78
2023/04/20 13:29:26;;;;;;;6.97;5.60;;;13.80;99.90;;;;;;5028045;28;20043;-80
2023/04/20 13:31:52;;;;;;;8.27;5.85;;;14.00;99.90;;;;;;5048388;28;20131;-80
2023/04/20 13:34:18;;;;;;;7.57;5.82;;;13.90;99.90;;;;;;5039694;28;20459;-80
2023/04/20 13:36:44;;;;;;;5.63;4.82;;;14.10;99.90;;;;;;5053904;28;20131;-81
2023/04/20 13:39:11;;;;;;;7.78;6.40;;;14.50;99.90;;;;;;5065498;28;20049;-79
2023/04/20 13:41:37;;;;;;;8.05;6.30;;;15.00;99.90;;;;;;5041335;28;20056;-80
2023/04/20 13:44:03;;;;;;;8.35;5.80;;;14.30;99.90;;;;;;5044948;28;20037;-79
2023/04/20 13:46:30;;;;;;;6.60;5.38;;;14.40;99.90;;;;;;5060199;28;20048;-79
2023/04/20 13:48:58;;;;;;;7.70;5.82;;;14.40;99.90;;;;;;5025516;28;20044;-83
2023/04/20 13:51:25;;;;;;;7.38;5.93;;;14.20;76.20;;;;;;5025365;28;20032;-82
2023/04/20 13:53:51;;;;;;;6.20;5.32;;;14.00;82.50;;;;;;5042202;28;20051;-81
2023/04/20 13:56:17;;;;;;;7.55;6.40;;;14.20;99.90;;;;;;5038732;28;20127;-80
2023/04/20 13:58:43;;;;;;;7.57;4.53;;;14.20;91.90;;;;;;5053407;28;20056;-80
2023/04/20 14:01:16;;;;;;;6.68;5.45;;;14.00;73.70;;;;;;5053091;28;20704;-80
2023/04/20 14:03:42;;;;;;;7.60;5.90;;;14.10;96.00;;;;;;5057549;28;20277;-81
2023/04/20 14:06:08;;;;;;;7.35;6.07;;;14.10;99.90;;;;;;5047244;28;20044;-79
2023/04/20 14:08:33;;;;;;;7.45;6.13;;;14.10;95.30;;;;;;5048699;28;20032;-79
2023/04/20 14:10:59;;;;;;;6.60;5.50;;;14.10;85.20;;;;;;5066231;28;20416;-77
2023/04/20 14:13:25;;;;;;;6.53;5.15;;;13.90;61.00;;;;;;5031300;28;20055;-79
2023/04/20 14:15:52;;;;;;;6.75;5.47;;;14.30;34.80;;;;;;5062980;28;20474;-79
2023/04/20 14:18:18;;;;;;;7.68;5.85;;;14.10;35.50;;;;;;5049720;28;20045;-80
2023/04/20 14:20:44;;;;;;;7.43;5.50;;;14.40;41.80;;;;;;5048288;28;20048;-81
2023/04/20 14:23:10;;;;;;;9.07;5.93;;;14.60;37.90;;;;;;5060714;28;20143;-80
2023/04/20 14:25:36;;;;;;;7.03;5.95;;;14.60;41.00;;;;;;5032137;28;20121;-81
2023/04/20 14:28:01;;;;;;;7.60;6.00;;;14.60;37.70;;;;;;5036607;28;20484;-82
2023/04/20 14:30:27;;;;;;;7.57;6.07;;;14.50;43.10;;;;;;5051050;28;20041;-79
2023/04/20 14:32:55;;;;;;;13.45;10.13;;;14.10;40.60;;;;;;5053344;28;20055;-80